createdAt,value
2018-05-07T00:02:06.672Z,13.07
2018-05-07T00:04:35.708Z,13.17
2018-05-07T00:07:03.956Z,13.01
2018-05-07T00:09:32.260Z,13.05
2018-05-07T00:12:00.515Z,13.09
2018-05-07T00:14:28.790Z,13.11
2018-05-07T00:16:57.054Z,13.18
2018-05-07T00:19:26.088Z,13.18
2018-05-07T00:21:54.359Z,12.79
2018-05-07T00:24:22.609Z,12.53
2018-05-07T00:26:50.853Z,12.50
2018-05-07T00:29:19.124Z,12.42
2018-05-07T00:31:47.447Z,12.41
2018-05-07T00:34:15.713Z,12.43
2018-05-07T00:36:43.980Z,12.44
2018-05-07T00:39:13.107Z,12.40
2018-05-07T00:41:41.475Z,12.38
2018-05-07T00:44:09.751Z,12.33
2018-05-07T00:46:38.016Z,12.20
2018-05-07T00:49:06.269Z,12.08
2018-05-07T00:51:35.285Z,12.08
2018-05-07T00:54:03.590Z,12.26
2018-05-07T00:56:31.854Z,12.32
2018-05-07T00:59:02.125Z,12.22
2018-05-07T01:01:30.377Z,12.19
2018-05-07T01:03:58.633Z,12.13
2018-05-07T01:06:26.897Z,12.19
2018-05-07T01:08:55.147Z,12.21
2018-05-07T01:11:24.187Z,12.26
2018-05-07T01:13:52.453Z,12.30
2018-05-07T01:16:20.709Z,12.18
2018-05-07T01:18:48.991Z,11.90
2018-05-07T01:21:17.245Z,11.90
2018-05-07T01:23:46.276Z,11.85
2018-05-07T01:26:14.536Z,11.79
2018-05-07T01:28:43.032Z,11.79
2018-05-07T01:31:11.310Z,11.66
2018-05-07T01:33:39.566Z,11.60
2018-05-07T01:36:08.601Z,11.54
2018-05-07T01:38:36.857Z,11.45
2018-05-07T01:41:05.109Z,11.39
2018-05-07T01:43:33.384Z,11.32
2018-05-07T01:46:01.633Z,11.27
2018-05-07T01:48:29.898Z,11.26
2018-05-07T01:50:58.153Z,11.23
2018-05-07T01:53:26.424Z,11.15
2018-05-07T01:55:54.684Z,11.17
2018-05-07T01:58:22.937Z,11.06
2018-05-07T02:00:51.988Z,10.99
2018-05-07T02:03:20.304Z,11.00
2018-05-07T02:05:49.324Z,10.98
2018-05-07T02:08:17.577Z,10.94
2018-05-07T02:10:46.650Z,10.91
2018-05-07T02:13:14.909Z,10.79
2018-05-07T02:15:43.174Z,10.66
2018-05-07T02:18:11.434Z,10.60
2018-05-07T02:20:39.797Z,10.67
2018-05-07T02:23:08.049Z,10.67
2018-05-07T02:25:37.160Z,10.44
2018-05-07T02:28:05.406Z,10.46
2018-05-07T02:30:33.724Z,10.30
2018-05-07T02:33:01.990Z,10.41
2018-05-07T02:35:30.296Z,10.39
2018-05-07T02:37:58.553Z,10.32
2018-05-07T02:40:26.805Z,10.30
2018-05-07T02:42:55.841Z,10.17
2018-05-07T02:45:24.108Z,10.15
2018-05-07T02:47:52.369Z,10.16
2018-05-07T02:50:20.644Z,10.03
2018-05-07T02:52:48.880Z,9.97
2018-05-07T02:55:17.127Z,9.98
2018-05-07T02:57:45.389Z,10.03
2018-05-07T03:00:13.632Z,10.00
2018-05-07T03:02:41.896Z,9.99
2018-05-07T03:05:11.027Z,9.94
2018-05-07T03:07:39.277Z,9.70
2018-05-07T03:10:07.617Z,9.74
2018-05-07T03:12:35.866Z,9.74
2018-05-07T03:15:04.225Z,9.62
2018-05-07T03:17:32.592Z,9.53
2018-05-07T03:20:01.496Z,9.56
2018-05-07T03:22:29.751Z,9.54
2018-05-07T03:24:58.764Z,9.50
2018-05-07T03:27:27.040Z,9.62
2018-05-07T03:29:55.293Z,9.55
2018-05-07T03:32:24.309Z,9.57
2018-05-07T03:34:52.565Z,9.43
2018-05-07T03:37:21.588Z,9.36
2018-05-07T03:39:49.845Z,9.22
2018-05-07T03:42:18.081Z,9.25
2018-05-07T03:44:46.324Z,9.14
2018-05-07T03:47:14.577Z,9.25
2018-05-07T03:49:42.824Z,9.13
2018-05-07T03:52:11.134Z,9.09
2018-05-07T03:54:39.418Z,9.14
2018-05-07T03:57:07.681Z,9.12
2018-05-07T03:59:35.979Z,9.12
2018-05-07T04:02:04.244Z,9.06
2018-05-07T04:04:32.510Z,9.11
2018-05-07T04:07:00.799Z,9.05
2018-05-07T04:09:29.081Z,9.05
2018-05-07T04:11:57.331Z,9.12
2018-05-07T04:14:26.353Z,9.22
2018-05-07T04:17:11.194Z,9.24
2018-05-07T04:19:57.397Z,9.20
2018-05-07T04:22:43.697Z,9.03
2018-05-07T04:25:11.984Z,9.13
2018-05-07T04:27:40.258Z,8.99
2018-05-07T04:30:08.536Z,9.14
2018-05-07T04:32:36.789Z,9.14
2018-05-07T04:35:05.810Z,9.24
2018-05-07T04:37:34.057Z,9.26
2018-05-07T04:40:03.165Z,9.37
2018-05-07T04:42:31.417Z,9.42
2018-05-07T04:44:59.717Z,9.60
2018-05-07T04:47:28.004Z,9.68
2018-05-07T04:49:56.328Z,9.85
2018-05-07T04:52:24.657Z,9.88
2018-05-07T04:54:52.916Z,10.03
2018-05-07T04:57:21.169Z,10.16
2018-05-07T04:59:49.478Z,10.20
2018-05-07T05:02:17.737Z,10.26
2018-05-07T05:04:46.760Z,10.37
2018-05-07T05:07:15.109Z,10.39
2018-05-07T05:09:43.297Z,10.46
2018-05-07T05:12:11.592Z,10.48
2018-05-07T05:14:39.878Z,10.61
2018-05-07T05:17:08.229Z,10.57
2018-05-07T05:19:36.496Z,10.53
2018-05-07T05:22:05.552Z,10.58
2018-05-07T05:24:34.712Z,10.69
2018-05-07T05:27:02.957Z,10.78
2018-05-07T05:29:32.001Z,10.98
2018-05-07T05:32:00.252Z,11.07
2018-05-07T05:34:28.517Z,11.28
2018-05-07T05:36:56.784Z,11.46
2018-05-07T05:39:25.892Z,11.57
2018-05-07T05:41:54.172Z,11.71
2018-05-07T05:44:22.455Z,11.71
2018-05-07T05:46:50.720Z,11.83
2018-05-07T05:49:19.001Z,12.01
2018-05-07T05:51:47.271Z,12.16
2018-05-07T05:54:15.520Z,12.33
2018-05-07T05:56:44.556Z,12.45
2018-05-07T05:59:12.957Z,12.62
2018-05-07T06:01:41.201Z,12.83
2018-05-07T06:04:09.475Z,13.03
2018-05-07T06:06:37.752Z,13.18
2018-05-07T06:09:06.066Z,13.32
2018-05-07T06:11:34.294Z,13.42
2018-05-07T06:14:02.569Z,13.57
2018-05-07T06:16:31.594Z,13.63
2018-05-07T06:18:59.856Z,13.70
2018-05-07T06:21:28.130Z,13.84
2018-05-07T06:23:56.380Z,14.06
2018-05-07T06:26:25.506Z,14.30
2018-05-07T06:28:53.789Z,14.50
2018-05-07T06:31:22.044Z,14.67
2018-05-07T06:33:50.285Z,14.88
2018-05-07T06:36:18.617Z,15.07
2018-05-07T06:38:46.890Z,15.26
2018-05-07T06:41:15.159Z,15.51
2018-05-07T06:43:43.427Z,15.72
2018-05-07T06:46:11.676Z,15.86
2018-05-07T06:48:40.703Z,15.82
2018-05-07T06:51:08.969Z,16.08
2018-05-07T06:53:37.256Z,16.25
2018-05-07T06:56:05.504Z,16.48
2018-05-07T06:58:34.541Z,16.65
2018-05-07T07:01:02.796Z,16.78
2018-05-07T07:03:31.839Z,16.58
2018-05-07T07:06:00.170Z,16.76
2018-05-07T07:08:28.582Z,16.94
2018-05-07T07:10:56.696Z,16.99
2018-05-07T07:13:25.817Z,17.27
2018-05-07T07:15:54.092Z,17.48
2018-05-07T07:18:22.408Z,17.71
2018-05-07T07:20:50.689Z,17.87
2018-05-07T07:23:18.931Z,18.00
2018-05-07T07:25:47.205Z,18.13
2018-05-07T07:28:15.524Z,18.30
2018-05-07T07:30:43.749Z,18.45
2018-05-07T07:33:12.033Z,18.58
2018-05-07T07:35:40.299Z,18.72
2018-05-07T07:38:08.553Z,18.90
2018-05-07T07:40:37.582Z,19.06
2018-05-07T07:43:05.852Z,19.19
2018-05-07T07:45:34.124Z,19.28
2018-05-07T07:48:02.381Z,19.37
2018-05-07T07:50:31.418Z,19.38
2018-05-07T07:52:59.674Z,19.58
2018-05-07T07:55:28.131Z,19.69
2018-05-07T07:57:57.246Z,19.84
2018-05-07T08:00:25.529Z,19.92
2018-05-07T08:02:53.779Z,20.03
2018-05-07T08:05:22.808Z,20.15
2018-05-07T08:07:51.062Z,20.25
2018-05-07T08:10:19.425Z,20.22
2018-05-07T08:12:48.461Z,20.32
2018-05-07T08:15:16.714Z,20.48
2018-05-07T08:17:44.980Z,20.54
2018-05-07T08:20:14.013Z,20.60
2018-05-07T08:22:42.377Z,20.78
2018-05-07T08:25:10.658Z,20.75
2018-05-07T08:27:38.919Z,20.60
2018-05-07T08:30:07.169Z,20.81
2018-05-07T08:32:36.189Z,21.04
2018-05-07T08:35:04.452Z,21.04
2018-05-07T08:37:33.573Z,21.05
2018-05-07T08:40:01.852Z,21.15
2018-05-07T08:42:30.221Z,21.43
2018-05-07T08:44:58.467Z,21.32
2018-05-07T08:47:27.585Z,21.20
2018-05-07T08:49:55.885Z,21.40
2018-05-07T08:52:24.138Z,21.40
2018-05-07T08:54:52.425Z,21.33
2018-05-07T08:57:20.685Z,21.48
2018-05-07T08:59:48.940Z,21.65
2018-05-07T09:02:17.347Z,21.69
2018-05-07T09:04:45.529Z,21.83
2018-05-07T09:07:13.787Z,21.64
2018-05-07T09:09:42.814Z,21.77
2018-05-07T09:12:11.094Z,21.88
2018-05-07T09:14:39.340Z,22.15
2018-05-07T09:17:07.596Z,22.26
2018-05-07T09:19:36.637Z,22.25
2018-05-07T09:22:04.897Z,22.23
2018-05-07T09:24:33.153Z,22.27
2018-05-07T09:27:02.266Z,22.28
2018-05-07T09:29:30.520Z,22.50
2018-05-07T09:31:59.550Z,22.69
2018-05-07T09:34:27.894Z,22.86
2018-05-07T09:36:56.923Z,22.69
2018-05-07T09:39:25.169Z,22.78
2018-05-07T09:41:54.189Z,22.74
2018-05-07T09:44:22.454Z,22.89
2018-05-07T09:46:50.741Z,22.91
2018-05-07T09:49:20.040Z,23.16
2018-05-07T09:51:48.294Z,23.15
2018-05-07T09:54:16.573Z,23.32
2018-05-07T09:56:56.963Z,23.09
2018-05-07T09:59:25.045Z,23.14
2018-05-07T10:01:53.440Z,23.36
2018-05-07T10:04:21.712Z,23.52
2018-05-07T10:06:49.960Z,23.43
2018-05-07T10:09:19.449Z,23.71
2018-05-07T10:11:47.722Z,23.89
2018-05-07T10:14:15.984Z,23.93
2018-05-07T10:16:44.993Z,23.83
2018-05-07T10:19:13.279Z,24.10
2018-05-07T10:21:41.525Z,24.07
2018-05-07T10:24:10.605Z,24.02
2018-05-07T10:26:38.815Z,24.18
2018-05-07T10:29:07.114Z,24.38
2018-05-07T10:31:35.367Z,24.64
2018-05-07T10:34:03.637Z,24.59
2018-05-07T10:36:31.905Z,24.27
2018-05-07T10:39:00.918Z,24.62
2018-05-07T10:41:29.301Z,24.66
2018-05-07T10:43:57.549Z,24.57
2018-05-07T10:46:26.682Z,24.48
2018-05-07T10:48:54.945Z,24.30
2018-05-07T10:51:23.202Z,24.63
2018-05-07T10:53:52.313Z,24.92
2018-05-07T10:56:20.688Z,25.01
2018-05-07T10:58:48.985Z,25.25
2018-05-07T11:01:17.240Z,25.39
2018-05-07T11:03:45.520Z,25.50
2018-05-07T11:06:13.791Z,25.58
2018-05-07T11:08:42.075Z,25.79
2018-05-07T11:11:10.341Z,25.55
2018-05-07T11:13:38.689Z,25.77
2018-05-07T11:16:07.680Z,25.71
2018-05-07T11:18:35.913Z,25.94
2018-05-07T11:21:04.173Z,25.71
2018-05-07T11:23:32.417Z,26.01
2018-05-07T11:26:01.544Z,26.09
2018-05-07T11:28:29.792Z,25.90
2018-05-07T11:30:58.829Z,25.73
2018-05-07T11:33:27.187Z,25.93
2018-05-07T11:35:55.435Z,26.45
2018-05-07T11:38:24.566Z,26.45
2018-05-07T11:40:52.837Z,26.64
2018-05-07T11:43:21.112Z,26.77
2018-05-07T11:45:49.388Z,26.90
2018-05-07T11:48:17.678Z,27.04
2018-05-07T11:50:45.936Z,27.15
2018-05-07T11:53:14.245Z,27.19
2018-05-07T11:55:43.234Z,27.20
2018-05-07T11:58:11.484Z,27.16
2018-05-07T12:00:39.777Z,26.45
2018-05-07T12:03:08.049Z,26.45
2018-05-07T12:05:36.325Z,26.83
2018-05-07T12:08:04.596Z,27.18
2018-05-07T12:10:32.874Z,27.37
2018-05-07T12:13:01.125Z,27.45
2018-05-07T12:15:30.152Z,27.13
2018-05-07T12:17:58.405Z,26.92
2018-05-07T12:20:26.661Z,27.08
2018-05-07T12:22:54.910Z,27.31
2018-05-07T12:25:23.178Z,27.47
2018-05-07T12:27:51.560Z,27.23
2018-05-07T12:30:19.820Z,27.63
2018-05-07T12:32:48.171Z,27.86
2018-05-07T12:35:16.460Z,27.91
2018-05-07T12:37:44.773Z,28.14
2018-05-07T12:40:13.104Z,28.40
2018-05-07T12:42:41.395Z,28.46
2018-05-07T12:45:09.645Z,28.62
2018-05-07T12:47:38.757Z,29.01
2018-05-07T12:50:07.000Z,29.09
2018-05-07T12:52:36.161Z,28.72
2018-05-07T12:55:04.385Z,28.73
2018-05-07T12:57:33.402Z,28.62
2018-05-07T13:00:01.640Z,28.82
2018-05-07T13:02:29.944Z,28.95
2018-05-07T13:04:58.230Z,29.03
2018-05-07T13:07:26.472Z,29.19
2018-05-07T13:09:55.592Z,29.46
2018-05-07T13:12:23.844Z,29.78
2018-05-07T13:14:52.960Z,29.73
2018-05-07T13:17:21.230Z,29.89
2018-05-07T13:19:50.243Z,29.85
2018-05-07T13:22:18.489Z,29.89
2018-05-07T13:24:47.648Z,30.14
2018-05-07T13:27:15.852Z,30.37
2018-05-07T13:29:44.886Z,30.13
2018-05-07T13:32:13.148Z,31.32
2018-05-07T13:34:41.409Z,32.76
2018-05-07T13:37:10.420Z,33.93
2018-05-07T13:39:38.688Z,34.72
2018-05-07T13:42:07.784Z,35.31
2018-05-07T13:44:36.100Z,36.08
2018-05-07T13:47:04.453Z,36.94
2018-05-07T13:49:32.712Z,37.20
2018-05-07T13:52:01.015Z,37.76
2018-05-07T13:54:29.285Z,37.49
2018-05-07T13:56:57.546Z,37.75
2018-05-07T13:59:26.648Z,37.53
2018-05-07T14:01:54.916Z,37.90
2018-05-07T14:04:23.164Z,37.49
2018-05-07T14:06:51.429Z,37.68
2018-05-07T14:09:19.708Z,38.01
2018-05-07T14:11:48.056Z,37.75
2018-05-07T14:14:16.322Z,37.70
2018-05-07T14:16:44.641Z,37.42
2018-05-07T14:19:12.866Z,38.19
2018-05-07T14:21:41.127Z,37.99
2018-05-07T14:24:09.388Z,37.98
2018-05-07T14:26:38.528Z,37.91
2018-05-07T14:29:06.788Z,37.64
2018-05-07T14:31:35.061Z,37.92
2018-05-07T14:34:03.309Z,38.50
2018-05-07T14:36:32.429Z,38.10
2018-05-07T14:39:00.704Z,37.97
2018-05-07T14:41:29.034Z,38.54
2018-05-07T14:43:57.261Z,37.63
2018-05-07T14:46:25.545Z,38.13
2018-05-07T14:48:53.816Z,38.78
2018-05-07T14:51:22.110Z,39.00
2018-05-07T14:53:50.359Z,38.94
2018-05-07T14:56:18.622Z,38.76
2018-05-07T14:58:47.802Z,39.33
2018-05-07T15:01:15.989Z,39.72
2018-05-07T15:03:45.005Z,38.63
2018-05-07T15:06:13.306Z,39.45
2018-05-07T15:08:41.628Z,39.19
2018-05-07T15:11:09.949Z,38.75
2018-05-07T15:13:38.267Z,39.24
2018-05-07T15:16:07.355Z,39.37
2018-05-07T15:18:35.669Z,39.27
2018-05-07T15:21:04.797Z,39.38
2018-05-07T15:23:33.062Z,39.80
2018-05-07T15:26:01.321Z,40.17
2018-05-07T15:28:30.429Z,40.16
2018-05-07T15:30:58.728Z,40.13
2018-05-07T15:33:26.989Z,38.26
2018-05-07T15:35:55.276Z,37.67
2018-05-07T15:38:23.545Z,38.49
2018-05-07T15:40:51.798Z,39.24
2018-05-07T15:43:20.818Z,39.23
2018-05-07T15:45:49.089Z,39.84
2018-05-07T15:48:17.355Z,40.21
2018-05-07T15:50:45.612Z,40.04
2018-05-07T15:53:14.644Z,39.68
2018-05-07T15:55:42.905Z,39.55
2018-05-07T15:58:11.152Z,39.81
2018-05-07T16:00:40.181Z,39.34
2018-05-07T16:03:08.586Z,39.96
2018-05-07T16:05:37.461Z,38.59
2018-05-07T16:08:06.562Z,38.89
2018-05-07T16:10:34.886Z,38.16
2018-05-07T16:13:03.940Z,39.31
2018-05-07T16:15:32.302Z,38.89
2018-05-07T16:18:00.592Z,39.20
2018-05-07T16:20:28.861Z,38.90
2018-05-07T16:22:57.125Z,38.72
2018-05-07T16:25:25.384Z,38.62
2018-05-07T16:27:53.688Z,39.23
2018-05-07T16:30:21.953Z,39.78
2018-05-07T16:32:50.208Z,39.34
2018-05-07T16:35:19.255Z,39.36
2018-05-07T16:37:47.517Z,39.63
2018-05-07T16:40:15.825Z,39.47
2018-05-07T16:42:44.047Z,38.91
2018-05-07T16:45:12.296Z,38.99
2018-05-07T16:47:41.334Z,39.46
2018-05-07T16:50:09.588Z,39.30
2018-05-07T16:52:37.958Z,39.91
2018-05-07T16:55:06.228Z,39.98
2018-05-07T16:57:35.317Z,40.18
2018-05-07T17:00:03.521Z,39.50
2018-05-07T17:02:31.761Z,39.06
2018-05-07T17:05:00.781Z,39.17
2018-05-07T17:07:29.045Z,40.00
2018-05-07T17:09:58.071Z,40.25
2018-05-07T17:12:26.309Z,38.72
2018-05-07T17:14:55.348Z,38.48
2018-05-07T17:17:23.604Z,38.65
2018-05-07T17:19:51.881Z,37.84
2018-05-07T17:22:20.153Z,37.96
2018-05-07T17:24:48.428Z,38.22
2018-05-07T17:27:16.680Z,38.44
2018-05-07T17:29:45.800Z,39.05
2018-05-07T17:32:14.049Z,39.63
2018-05-07T17:34:43.183Z,39.87
2018-05-07T17:37:11.558Z,38.81
2018-05-07T17:39:39.817Z,39.05
2018-05-07T17:42:08.078Z,39.12
2018-05-07T17:44:54.677Z,38.87
2018-05-07T17:47:40.742Z,38.35
2018-05-07T17:50:09.190Z,38.42
2018-05-07T17:52:37.446Z,38.41
2018-05-07T17:55:06.501Z,37.75
2018-05-07T17:57:34.772Z,37.57
2018-05-07T18:00:03.143Z,37.21
2018-05-07T18:02:31.381Z,35.75
2018-05-07T18:04:59.668Z,34.62
2018-05-07T18:07:27.942Z,33.49
2018-05-07T18:09:56.249Z,32.21
2018-05-07T18:12:24.600Z,30.90
2018-05-07T18:14:52.858Z,29.89
2018-05-07T18:17:21.880Z,28.74
2018-05-07T18:19:50.150Z,28.14
2018-05-07T18:22:18.424Z,27.20
2018-05-07T18:24:46.679Z,26.26
2018-05-07T18:27:15.718Z,26.03
2018-05-07T18:29:43.978Z,25.60
2018-05-07T18:32:12.261Z,25.23
2018-05-07T18:34:42.279Z,24.66
2018-05-07T18:37:10.554Z,24.65
2018-05-07T18:39:38.818Z,24.21
2018-05-07T18:42:07.091Z,24.09
2018-05-07T18:44:35.356Z,23.85
2018-05-07T18:47:03.682Z,23.55
2018-05-07T18:49:32.196Z,23.26
2018-05-07T18:52:01.292Z,23.09
2018-05-07T18:54:30.952Z,23.00
2018-05-07T18:57:00.981Z,22.76
2018-05-07T18:59:30.781Z,22.65
2018-05-07T19:02:00.688Z,22.55
2018-05-07T19:04:30.629Z,22.38
2018-05-07T19:07:01.127Z,22.20
2018-05-07T19:09:30.988Z,22.13
2018-05-07T19:12:00.993Z,21.62
2018-05-07T19:14:30.926Z,21.37
2018-05-07T19:17:00.897Z,21.38
2018-05-07T19:19:30.373Z,21.40
2018-05-07T19:22:01.190Z,21.21
2018-05-07T19:24:31.012Z,21.17
2018-05-07T19:27:00.886Z,21.14
2018-05-07T19:29:30.681Z,20.78
2018-05-07T19:32:00.864Z,20.82
2018-05-07T19:34:30.734Z,20.72
2018-05-07T19:37:00.700Z,20.67
2018-05-07T19:39:31.907Z,20.66
2018-05-07T19:42:01.919Z,20.61
2018-05-07T19:44:31.783Z,20.41
2018-05-07T19:47:01.853Z,20.29
2018-05-07T19:49:31.652Z,20.12
2018-05-07T19:52:01.552Z,19.82
2018-05-07T19:54:31.708Z,19.35
2018-05-07T19:57:01.814Z,19.26
2018-05-07T19:59:31.754Z,19.44
2018-05-07T20:02:01.679Z,19.49
2018-05-07T20:04:31.324Z,19.50
2018-05-07T20:07:02.052Z,19.29
2018-05-07T20:09:31.862Z,19.29
2018-05-07T20:12:02.874Z,19.31
2018-05-07T20:14:32.688Z,19.24
2018-05-07T20:17:02.604Z,19.20
2018-05-07T20:19:33.381Z,19.17
2018-05-07T20:22:03.453Z,19.02
2018-05-07T20:24:33.255Z,19.01
2018-05-07T20:27:03.040Z,19.08
2018-05-07T20:29:32.718Z,18.96
2018-05-07T20:32:02.554Z,19.02
2018-05-07T20:34:32.397Z,19.06
2018-05-07T20:37:02.288Z,19.04
2018-05-07T20:39:32.241Z,19.02
2018-05-07T20:42:01.865Z,18.98
2018-05-07T20:44:32.074Z,18.94
2018-05-07T20:47:00.970Z,18.75
2018-05-07T20:49:29.874Z,18.67
2018-05-07T20:51:58.349Z,18.59
2018-05-07T20:54:26.725Z,18.54
2018-05-07T20:56:55.004Z,18.33
2018-05-07T20:59:23.357Z,18.32
2018-05-07T21:01:51.972Z,18.29
2018-05-07T21:04:20.264Z,18.16
2018-05-07T21:06:48.621Z,18.12
2018-05-07T21:09:16.887Z,17.91
2018-05-07T21:11:45.168Z,18.03
2018-05-07T21:14:13.449Z,17.69
2018-05-07T21:16:41.730Z,17.64
2018-05-07T21:19:09.978Z,17.63
2018-05-07T21:21:39.009Z,17.64
2018-05-07T21:24:07.372Z,17.31
2018-05-07T21:26:35.626Z,17.31
2018-05-07T21:29:04.724Z,17.48
2018-05-07T21:31:33.752Z,17.64
2018-05-07T21:34:02.007Z,17.70
2018-05-07T21:36:30.300Z,17.49
2018-05-07T21:38:59.292Z,17.32
2018-05-07T21:41:27.629Z,17.52
2018-05-07T21:43:56.749Z,17.43
2018-05-07T21:46:25.041Z,17.36
2018-05-07T21:48:53.309Z,17.22
2018-05-07T21:51:21.584Z,17.33
2018-05-07T21:53:49.857Z,17.12
2018-05-07T21:56:18.108Z,16.87
2018-05-07T21:58:47.229Z,16.79
2018-05-07T22:01:15.504Z,16.62
2018-05-07T22:03:43.758Z,16.44
2018-05-07T22:06:12.792Z,16.76
2018-05-07T22:08:41.049Z,16.85
2018-05-07T22:11:09.304Z,16.92
2018-05-07T22:13:38.316Z,16.92
2018-05-07T22:16:06.579Z,16.98
2018-05-07T22:18:35.693Z,16.71
2018-05-07T22:21:03.946Z,16.57
2018-05-07T22:23:33.004Z,16.61
2018-05-07T22:26:01.261Z,16.55
2018-05-07T22:28:29.617Z,16.74
2018-05-07T22:30:57.889Z,16.53
2018-05-07T22:33:26.141Z,16.69
2018-05-07T22:35:55.165Z,16.58
2018-05-07T22:38:23.428Z,16.55
2018-05-07T22:40:51.679Z,16.50
2018-05-07T22:43:19.924Z,16.48
2018-05-07T22:45:48.192Z,16.46
2018-05-07T22:48:16.480Z,16.65
2018-05-07T22:50:44.732Z,16.45
2018-05-07T22:53:13.004Z,16.61
2018-05-07T22:55:41.265Z,16.74
2018-05-07T22:58:09.554Z,16.83
2018-05-07T23:00:37.917Z,16.81
2018-05-07T23:03:06.933Z,16.70
2018-05-07T23:05:35.185Z,16.28
2018-05-07T23:08:04.234Z,16.52
2018-05-07T23:10:32.590Z,16.38
2018-05-07T23:13:00.844Z,16.55
2018-05-07T23:15:29.217Z,16.55
2018-05-07T23:17:57.476Z,16.55
2018-05-07T23:20:26.501Z,16.56
2018-05-07T23:22:54.774Z,16.37
2018-05-07T23:25:23.040Z,15.91
2018-05-07T23:27:51.337Z,15.56
2018-05-07T23:30:19.605Z,15.71
2018-05-07T23:32:47.852Z,15.78
2018-05-07T23:35:16.877Z,15.81
2018-05-07T23:37:45.245Z,15.81
2018-05-07T23:40:13.526Z,15.79
2018-05-07T23:42:41.778Z,15.55
2018-05-07T23:45:10.816Z,15.37
2018-05-07T23:47:39.170Z,15.32
2018-05-07T23:50:07.498Z,15.42
2018-05-07T23:52:35.766Z,15.44
2018-05-07T23:55:04.020Z,15.15
2018-05-07T23:57:32.278Z,15.08
